sensor_id;sensor_type;location;lat;lon;timestamp;noise_LAeq;noise_LA_min;noise_LA_max;noise_LA01;noise_LA95
66460;Laerm;58055;52.456;4.738;2023-04-06T00:00:03;37.99;34.21;44.90;;
66460;Laerm;58055;52.456;4.738;2023-04-06T00:00:15;37.55;33.69;47.72;;
66460;Laerm;58055;52.456;4.738;2023-04-06T00:00:25;37.11;33.50;45.89;;
66460;Laerm;58055;52.456;4.738;2023-04-06T00:00:36;35.43;33.47;44.74;;
66460;Laerm;58055;52.456;4.738;2023-04-06T00:00:47;35.34;33.14;42.92;;
66460;Laerm;58055;52.456;4.738;2023-04-06T00:00:58;35.62;32.60;42.18;;
66460;Laerm;58055;52.456;4.738;2023-04-06T00:01:08;34.84;32.98;41.40;;
66460;Laerm;58055;52.456;4.738;2023-04-06T00:01:18;34.76;32.73;44.01;;
66460;Laerm;58055;52.456;4.738;2023-04-06T00:01:29;35.46;32.72;40.21;;
66460;Laerm;58055;52.456;4.738;2023-04-06T00:01:39;34.90;33.08;40.99;;
66460;Laerm;58055;52.456;4.738;2023-04-06T00:01:50;35.08;32.70;40.78;;
66460;Laerm;58055;52.456;4.738;2023-04-06T00:02:00;36.12;33.29;43.81;;
66460;Laerm;58055;52.456;4.738;2023-04-06T00:02:11;35.81;33.55;40.06;;
66460;Laerm;58055;52.456;4.738;2023-04-06T00:02:21;35.15;33.25;36.66;;
66460;Laerm;58055;52.456;4.738;2023-04-06T00:02:31;35.44;33.59;38.05;;
66460;Laerm;58055;52.456;4.738;2023-04-06T00:02:41;35.31;33.57;40.91;;
66460;Laerm;58055;52.456;4.738;2023-04-06T00:02:52;35.94;33.05;45.77;;
66460;Laerm;58055;52.456;4.738;2023-04-06T00:03:02;35.18;32.43;42.48;;
66460;Laerm;58055;52.456;4.738;2023-04-06T00:03:13;35.80;33.19;44.24;;
66460;Laerm;58055;52.456;4.738;2023-04-06T00:03:23;35.05;32.91;40.33;;
66460;Laerm;58055;52.456;4.738;2023-04-06T00:03:34;36.18;33.26;41.69;;
66460;Laerm;58055;52.456;4.738;2023-04-06T00:03:44;35.58;33.59;39.61;;
66460;Laerm;58055;52.456;4.738;2023-04-06T00:03:54;35.06;32.76;36.98;;
66460;Laerm;58055;52.456;4.738;2023-04-06T00:04:05;35.83;33.43;42.91;;
66460;Laerm;58055;52.456;4.738;2023-04-06T00:04:16;36.45;33.43;41.71;;
66460;Laerm;58055;52.456;4.738;2023-04-06T00:04:26;37.79;33.27;48.18;;
66460;Laerm;58055;52.456;4.738;2023-04-06T00:04:36;36.03;33.09;43.97;;
66460;Laerm;58055;52.456;4.738;2023-04-06T00:04:47;35.40;33.16;39.03;;
66460;Laerm;58055;52.456;4.738;2023-04-06T00:04:57;35.61;33.14;41.84;;
66460;Laerm;58055;52.456;4.738;2023-04-06T00:05:07;34.86;32.55;39.95;;
66460;Laerm;58055;52.456;4.738;2023-04-06T00:05:18;34.94;32.92;41.70;;
66460;Laerm;58055;52.456;4.738;2023-04-06T00:05:29;34.96;32.70;40.59;;
66460;Laerm;58055;52.456;4.738;2023-04-06T00:05:41;36.53;33.08;47.52;;
66460;Laerm;58055;52.456;4.738;2023-04-06T00:05:51;37.45;34.34;47.91;;
66460;Laerm;58055;52.456;4.738;2023-04-06T00:06:01;37.01;33.46;40.16;;
66460;Laerm;58055;52.456;4.738;2023-04-06T00:06:12;36.10;34.19;37.76;;
66460;Laerm;58055;52.456;4.738;2023-04-06T00:06:22;36.23;34.38;37.88;;
66460;Laerm;58055;52.456;4.738;2023-04-06T00:06:32;36.06;34.19;37.86;;
66460;Laerm;58055;52.456;4.738;2023-04-06T00:06:43;36.19;34.32;38.26;;
66460;Laerm;58055;52.456;4.738;2023-04-06T00:06:53;36.78;34.88;38.55;;
66460;Laerm;58055;52.456;4.738;2023-04-06T00:07:03;36.46;34.65;38.28;;
66460;Laerm;58055;52.456;4.738;2023-04-06T00:07:14;36.89;35.14;41.96;;
66460;Laerm;58055;52.456;4.738;2023-04-06T00:07:24;36.95;35.26;39.11;;
66460;Laerm;58055;52.456;4.738;2023-04-06T00:07:35;38.09;36.24;40.50;;
66460;Laerm;58055;52.456;4.738;2023-04-06T00:07:45;37.00;35.05;39.61;;
66460;Laerm;58055;52.456;4.738;2023-04-06T00:07:58;37.03;35.18;41.74;;
66460;Laerm;58055;52.456;4.738;2023-04-06T00:08:09;37.32;34.26;46.28;;
66460;Laerm;58055;52.456;4.738;2023-04-06T00:08:19;36.46;34.68;40.55;;
66460;Laerm;58055;52.456;4.738;2023-04-06T00:08:31;36.29;34.53;38.77;;
66460;Laerm;58055;52.456;4.738;2023-04-06T00:08:41;36.38;34.78;39.11;;
66460;Laerm;58055;52.456;4.738;2023-04-06T00:08:52;37.91;33.46;48.42;;
66460;Laerm;58055;52.456;4.738;2023-04-06T00:09:02;35.27;33.52;37.88;;
66460;Laerm;58055;52.456;4.738;2023-04-06T00:09:12;35.83;33.78;38.58;;
66460;Laerm;58055;52.456;4.738;2023-04-06T00:09:23;35.14;33.37;37.00;;
66460;Laerm;58055;52.456;4.738;2023-04-06T00:09:33;35.46;33.43;40.90;;
66460;Laerm;58055;52.456;4.738;2023-04-06T00:09:43;35.06;32.81;39.91;;
66460;Laerm;58055;52.456;4.738;2023-04-06T00:09:54;35.63;33.39;41.45;;
66460;Laerm;58055;52.456;4.738;2023-04-06T00:10:05;35.59;33.66;38.41;;
66460;Laerm;58055;52.456;4.738;2023-04-06T00:10:16;35.80;33.60;41.27;;
66460;Laerm;58055;52.456;4.738;2023-04-06T00:10:27;35.83;33.74;41.48;;
66460;Laerm;58055;52.456;4.738;2023-04-06T00:10:37;35.60;33.66;37.54;;
66460;Laerm;58055;52.456;4.738;2023-04-06T00:10:47;36.83;34.43;40.91;;
66460;Laerm;58055;52.456;4.738;2023-04-06T00:10:57;35.91;33.73;38.17;;
66460;Laerm;58055;52.456;4.738;2023-04-06T00:11:08;36.36;33.93;40.02;;
66460;Laerm;58055;52.456;4.738;2023-04-06T00:11:18;36.82;34.27;41.73;;
66460;Laerm;58055;52.456;4.738;2023-04-06T00:11:29;36.63;33.79;40.72;;
66460;Laerm;58055;52.456;4.738;2023-04-06T00:11:39;36.92;34.38;40.95;;
66460;Laerm;58055;52.456;4.738;2023-04-06T00:11:49;38.87;35.38;43.55;;
66460;Laerm;58055;52.456;4.738;2023-04-06T00:12:00;45.51;34.78;52.80;;
66460;Laerm;58055;52.456;4.738;2023-04-06T00:12:10;41.96;38.17;47.86;;
66460;Laerm;58055;52.456;4.738;2023-04-06T00:12:20;42.55;38.97;46.65;;
66460;Laerm;58055;52.456;4.738;2023-04-06T00:12:30;40.77;36.67;47.01;;
66460;Laerm;58055;52.456;4.738;2023-04-06T00:12:41;40.96;37.72;43.99;;
66460;Laerm;58055;52.456;4.738;2023-04-06T00:12:51;40.79;36.82;45.61;;
66460;Laerm;58055;52.456;4.738;2023-04-06T00:13:02;44.21;34.32;58.50;;
66460;Laerm;58055;52.456;4.738;2023-04-06T00:13:12;39.34;34.20;52.61;;
66460;Laerm;58055;52.456;4.738;2023-04-06T00:13:22;41.75;33.28;52.75;;
66460;Laerm;58055;52.456;4.738;2023-04-06T00:13:32;35.63;33.14;42.78;;
66460;Laerm;58055;52.456;4.738;2023-04-06T00:13:44;35.19;32.69;43.10;;
66460;Laerm;58055;52.456;4.738;2023-04-06T00:13:54;34.79;32.54;36.36;;
66460;Laerm;58055;52.456;4.738;2023-04-06T00:14:05;34.89;32.92;36.73;;
66460;Laerm;58055;52.456;4.738;2023-04-06T00:14:15;34.52;32.08;36.31;;
66460;Laerm;58055;52.456;4.738;2023-04-06T00:14:27;35.11;32.26;47.52;;
66460;Laerm;58055;52.456;4.738;2023-04-06T00:14:37;36.02;32.92;42.03;;
66460;Laerm;58055;52.456;4.738;2023-04-06T00:14:47;35.05;32.99;38.29;;
66460;Laerm;58055;52.456;4.738;2023-04-06T00:14:58;35.35;33.16;38.82;;
66460;Laerm;58055;52.456;4.738;2023-04-06T00:15:08;34.98;32.90;38.31;;
66460;Laerm;58055;52.456;4.738;2023-04-06T00:15:19;34.72;33.21;37.14;;
66460;Laerm;58055;52.456;4.738;2023-04-06T00:15:30;34.93;32.82;39.07;;
66460;Laerm;58055;52.456;4.738;2023-04-06T00:15:40;34.92;33.08;37.38;;
66460;Laerm;58055;52.456;4.738;2023-04-06T00:15:51;35.16;33.31;36.99;;
66460;Laerm;58055;52.456;4.738;2023-04-06T00:16:01;34.84;32.93;37.65;;
66460;Laerm;58055;52.456;4.738;2023-04-06T00:16:11;34.76;32.87;37.21;;
66460;Laerm;58055;52.456;4.738;2023-04-06T00:16:22;35.08;32.76;40.79;;
66460;Laerm;58055;52.456;4.738;2023-04-06T00:16:32;34.92;32.78;37.01;;
66460;Laerm;58055;52.456;4.738;2023-04-06T00:16:42;35.21;32.61;41.70;;
66460;Laerm;58055;52.456;4.738;2023-04-06T00:16:52;35.25;33.10;41.23;;
66460;Laerm;58055;52.456;4.738;2023-04-06T00:17:03;35.10;32.55;39.44;;
66460;Laerm;58055;52.456;4.738;2023-04-06T00:17:13;35.80;33.68;39.98;;
66460;Laerm;58055;52.456;4.738;2023-04-06T00:17:23;35.38;33.32;39.48;;
66460;Laerm;58055;52.456;4.738;2023-04-06T00:17:34;36.18;34.03;45.91;;
66460;Laerm;58055;52.456;4.738;2023-04-06T00:17:44;35.56;33.47;41.11;;
66460;Laerm;58055;52.456;4.738;2023-04-06T00:17:55;35.10;32.99;38.23;;
66460;Laerm;58055;52.456;4.738;2023-04-06T00:18:05;34.94;32.83;37.36;;
66460;Laerm;58055;52.456;4.738;2023-04-06T00:18:15;35.36;33.27;39.13;;
66460;Laerm;58055;52.456;4.738;2023-04-06T00:18:26;35.59;33.60;39.79;;
66460;Laerm;58055;52.456;4.738;2023-04-06T00:18:36;35.18;32.96;38.83;;
66460;Laerm;58055;52.456;4.738;2023-04-06T00:18:46;35.12;32.77;39.67;;
66460;Laerm;58055;52.456;4.738;2023-04-06T00:18:57;34.61;32.91;36.96;;
66460;Laerm;58055;52.456;4.738;2023-04-06T00:19:07;34.91;32.85;36.97;;
66460;Laerm;58055;52.456;4.738;2023-04-06T00:19:17;34.59;32.64;38.97;;
66460;Laerm;58055;52.456;4.738;2023-04-06T00:19:28;34.66;32.55;38.40;;
66460;Laerm;58055;52.456;4.738;2023-04-06T00:19:38;34.45;32.59;36.43;;
66460;Laerm;58055;52.456;4.738;2023-04-06T00:19:48;34.61;32.65;36.64;;
66460;Laerm;58055;52.456;4.738;2023-04-06T00:19:59;34.40;32.42;36.13;;
66460;Laerm;58055;52.456;4.738;2023-04-06T00:20:09;34.53;32.89;36.13;;
66460;Laerm;58055;52.456;4.738;2023-04-06T00:20:20;34.12;32.08;35.88;;
66460;Laerm;58055;52.456;4.738;2023-04-06T00:20:30;34.54;32.72;36.11;;
66460;Laerm;58055;52.456;4.738;2023-04-06T00:20:41;34.82;33.37;37.95;;
66460;Laerm;58055;52.456;4.738;2023-04-06T00:20:51;35.07;32.60;37.39;;
66460;Laerm;58055;52.456;4.738;2023-04-06T00:21:01;36.14;34.01;39.66;;
66460;Laerm;58055;52.456;4.738;2023-04-06T00:21:12;35.71;33.50;38.76;;
66460;Laerm;58055;52.456;4.738;2023-04-06T00:21:25;35.92;33.21;40.79;;
66460;Laerm;58055;52.456;4.738;2023-04-06T00:21:35;36.06;33.30;38.46;;
66460;Laerm;58055;52.456;4.738;2023-04-06T00:21:46;36.69;33.56;39.42;;
66460;Laerm;58055;52.456;4.738;2023-04-06T00:21:56;36.78;34.50;39.23;;
66460;Laerm;58055;52.456;4.738;2023-04-06T00:22:06;36.63;33.30;38.81;;
66460;Laerm;58055;52.456;4.738;2023-04-06T00:22:17;36.66;34.11;39.13;;
66460;Laerm;58055;52.456;4.738;2023-04-06T00:22:27;36.42;34.15;38.62;;
66460;Laerm;58055;52.456;4.738;2023-04-06T00:22:37;35.88;33.58;39.54;;
66460;Laerm;58055;52.456;4.738;2023-04-06T00:22:47;35.55;33.56;38.39;;
66460;Laerm;58055;52.456;4.738;2023-04-06T00:22:58;35.96;33.50;43.00;;
66460;Laerm;58055;52.456;4.738;2023-04-06T00:23:08;35.51;33.29;37.64;;
66460;Laerm;58055;52.456;4.738;2023-04-06T00:23:18;35.20;33.05;37.20;;
66460;Laerm;58055;52.456;4.738;2023-04-06T00:23:29;35.28;33.10;41.95;;
66460;Laerm;58055;52.456;4.738;2023-04-06T00:23:39;35.34;32.78;39.90;;
66460;Laerm;58055;52.456;4.738;2023-04-06T00:23:49;35.91;33.21;44.44;;
66460;Laerm;58055;52.456;4.738;2023-04-06T00:24:00;34.95;32.90;36.94;;
66460;Laerm;58055;52.456;4.738;2023-04-06T00:24:10;35.54;33.29;38.42;;
66460;Laerm;58055;52.456;4.738;2023-04-06T00:24:21;37.48;34.16;43.52;;
66460;Laerm;58055;52.456;4.738;2023-04-06T00:24:31;36.45;33.92;38.96;;
66460;Laerm;58055;52.456;4.738;2023-04-06T00:24:41;37.61;33.82;41.67;;
66460;Laerm;58055;52.456;4.738;2023-04-06T00:24:52;37.81;35.26;42.42;;
66460;Laerm;58055;52.456;4.738;2023-04-06T00:25:02;39.20;34.25;44.09;;
66460;Laerm;58055;52.456;4.738;2023-04-06T00:25:12;39.03;33.80;46.16;;
66460;Laerm;58055;52.456;4.738;2023-04-06T00:25:23;35.92;32.82;44.75;;
66460;Laerm;58055;52.456;4.738;2023-04-06T00:25:33;35.35;33.17;44.55;;
66460;Laerm;58055;52.456;4.738;2023-04-06T00:25:43;34.64;32.62;36.37;;
66460;Laerm;58055;52.456;4.738;2023-04-06T00:25:54;34.71;33.10;36.64;;
66460;Laerm;58055;52.456;4.738;2023-04-06T00:26:05;35.28;33.42;41.38;;
66460;Laerm;58055;52.456;4.738;2023-04-06T00:26:15;35.11;33.00;40.88;;
66460;Laerm;58055;52.456;4.738;2023-04-06T00:26:26;36.45;33.24;43.43;;
66460;Laerm;58055;52.456;4.738;2023-04-06T00:26:36;35.35;33.36;39.04;;
66460;Laerm;58055;52.456;4.738;2023-04-06T00:26:46;35.09;33.15;39.19;;
66460;Laerm;58055;52.456;4.738;2023-04-06T00:26:57;37.46;32.89;48.21;;
66460;Laerm;58055;52.456;4.738;2023-04-06T00:27:07;36.71;33.44;48.01;;
66460;Laerm;58055;52.456;4.738;2023-04-06T00:27:17;38.79;33.22;50.62;;
66460;Laerm;58055;52.456;4.738;2023-04-06T00:27:28;36.34;33.41;42.55;;
66460;Laerm;58055;52.456;4.738;2023-04-06T00:27:38;34.92;32.65;38.46;;
66460;Laerm;58055;52.456;4.738;2023-04-06T00:27:48;34.96;33.31;37.36;;
66460;Laerm;58055;52.456;4.738;2023-04-06T00:27:59;34.97;33.12;37.31;;
66460;Laerm;58055;52.456;4.738;2023-04-06T00:28:09;35.17;32.27;43.72;;
66460;Laerm;58055;52.456;4.738;2023-04-06T00:28:19;36.15;32.73;45.91;;
66460;Laerm;58055;52.456;4.738;2023-04-06T00:28:36;35.95;33.18;46.77;;
66460;Laerm;58055;52.456;4.738;2023-04-06T00:28:47;35.14;33.26;37.66;;
66460;Laerm;58055;52.456;4.738;2023-04-06T00:28:57;35.87;33.34;41.22;;
66460;Laerm;58055;52.456;4.738;2023-04-06T00:29:08;35.48;33.40;40.48;;
66460;Laerm;58055;52.456;4.738;2023-04-06T00:29:19;34.77;32.68;39.08;;
66460;Laerm;58055;52.456;4.738;2023-04-06T00:29:29;34.87;32.69;41.07;;
66460;Laerm;58055;52.456;4.738;2023-04-06T00:29:40;35.03;33.02;38.19;;
66460;Laerm;58055;52.456;4.738;2023-04-06T00:29:50;35.72;33.02;41.48;;
66460;Laerm;58055;52.456;4.738;2023-04-06T00:30:01;35.01;32.65;38.36;;
66460;Laerm;58055;52.456;4.738;2023-04-06T00:30:11;36.33;32.64;46.10;;
66460;Laerm;58055;52.456;4.738;2023-04-06T00:30:22;35.99;32.92;47.87;;
66460;Laerm;58055;52.456;4.738;2023-04-06T00:30:32;36.00;33.54;46.07;;
66460;Laerm;58055;52.456;4.738;2023-04-06T00:30:42;36.19;34.00;41.23;;
66460;Laerm;58055;52.456;4.738;2023-04-06T00:30:53;35.44;33.34;40.31;;
66460;Laerm;58055;52.456;4.738;2023-04-06T00:31:05;35.29;33.24;38.18;;
66460;Laerm;58055;52.456;4.738;2023-04-06T00:31:15;34.98;32.93;41.54;;
66460;Laerm;58055;52.456;4.738;2023-04-06T00:31:25;35.95;32.84;45.60;;
66460;Laerm;58055;52.456;4.738;2023-04-06T00:31:36;37.24;33.16;48.91;;
66460;Laerm;58055;52.456;4.738;2023-04-06T00:31:46;34.88;32.83;39.44;;
66460;Laerm;58055;52.456;4.738;2023-04-06T00:31:56;35.52;32.52;41.02;;
66460;Laerm;58055;52.456;4.738;2023-04-06T00:32:06;34.87;32.98;39.21;;
66460;Laerm;58055;52.456;4.738;2023-04-06T00:32:17;35.06;32.84;38.46;;
66460;Laerm;58055;52.456;4.738;2023-04-06T00:32:27;35.84;33.49;39.75;;
66460;Laerm;58055;52.456;4.738;2023-04-06T00:32:37;35.12;33.12;38.00;;
66460;Laerm;58055;52.456;4.738;2023-04-06T00:32:48;35.38;33.27;39.17;;
66460;Laerm;58055;52.456;4.738;2023-04-06T00:32:58;35.31;33.08;38.27;;
66460;Laerm;58055;52.456;4.738;2023-04-06T00:33:08;35.75;33.10;43.00;;
66460;Laerm;58055;52.456;4.738;2023-04-06T00:33:19;36.10;33.01;44.35;;
66460;Laerm;58055;52.456;4.738;2023-04-06T00:33:29;37.10;33.20;48.30;;
66460;Laerm;58055;52.456;4.738;2023-04-06T00:33:40;35.38;33.01;41.00;;
66460;Laerm;58055;52.456;4.738;2023-04-06T00:33:50;35.33;32.74;39.35;;
66460;Laerm;58055;52.456;4.738;2023-04-06T00:34:00;35.71;32.89;42.68;;
66460;Laerm;58055;52.456;4.738;2023-04-06T00:34:11;35.09;33.20;38.49;;
66460;Laerm;58055;52.456;4.738;2023-04-06T00:34:21;35.43;32.47;38.98;;
66460;Laerm;58055;52.456;4.738;2023-04-06T00:34:31;35.42;33.21;39.29;;
66460;Laerm;58055;52.456;4.738;2023-04-06T00:34:42;35.67;33.08;40.92;;
66460;Laerm;58055;52.456;4.738;2023-04-06T00:34:52;35.60;33.24;39.66;;
66460;Laerm;58055;52.456;4.738;2023-04-06T00:35:03;36.41;33.48;44.42;;
66460;Laerm;58055;52.456;4.738;2023-04-06T00:35:13;37.65;33.38;49.12;;
66460;Laerm;58055;52.456;4.738;2023-04-06T00:35:25;35.66;33.20;41.33;;
66460;Laerm;58055;52.456;4.738;2023-04-06T00:35:35;34.67;32.63;40.24;;
66460;Laerm;58055;52.456;4.738;2023-04-06T00:35:45;35.12;32.69;39.54;;
66460;Laerm;58055;52.456;4.738;2023-04-06T00:35:56;35.15;32.89;39.57;;
66460;Laerm;58055;52.456;4.738;2023-04-06T00:36:06;34.85;32.47;36.88;;
66460;Laerm;58055;52.456;4.738;2023-04-06T00:36:16;35.28;32.77;39.57;;
66460;Laerm;58055;52.456;4.738;2023-04-06T00:36:27;35.19;33.03;38.60;;
66460;Laerm;58055;52.456;4.738;2023-04-06T00:36:37;35.23;32.84;40.29;;
66460;Laerm;58055;52.456;4.738;2023-04-06T00:36:47;34.87;33.26;36.76;;
66460;Laerm;58055;52.456;4.738;2023-04-06T00:36:58;35.18;33.07;40.97;;
66460;Laerm;58055;52.456;4.738;2023-04-06T00:37:08;34.63;32.74;36.34;;
66460;Laerm;58055;52.456;4.738;2023-04-06T00:37:18;38.37;33.11;51.78;;
66460;Laerm;58055;52.456;4.738;2023-04-06T00:37:29;36.69;33.41;42.46;;
66460;Laerm;58055;52.456;4.738;2023-04-06T00:37:40;35.66;33.35;38.65;;
66460;Laerm;58055;52.456;4.738;2023-04-06T00:37:50;35.71;32.94;40.29;;
66460;Laerm;58055;52.456;4.738;2023-04-06T00:38:01;35.79;33.32;41.08;;
66460;Laerm;58055;52.456;4.738;2023-04-06T00:38:11;37.22;33.29;49.28;;
66460;Laerm;58055;52.456;4.738;2023-04-06T00:38:22;35.87;32.97;41.43;;
66460;Laerm;58055;52.456;4.738;2023-04-06T00:38:32;36.40;33.22;43.64;;
66460;Laerm;58055;52.456;4.738;2023-04-06T00:38:42;35.75;33.83;39.59;;
66460;Laerm;58055;52.456;4.738;2023-04-06T00:38:52;35.86;33.38;38.85;;
66460;Laerm;58055;52.456;4.738;2023-04-06T00:39:03;36.28;33.62;39.88;;
66460;Laerm;58055;52.456;4.738;2023-04-06T00:39:13;35.32;33.09;38.15;;
66460;Laerm;58055;52.456;4.738;2023-04-06T00:39:23;36.04;32.91;41.57;;
66460;Laerm;58055;52.456;4.738;2023-04-06T00:39:34;36.24;33.36;40.34;;
66460;Laerm;58055;52.456;4.738;2023-04-06T00:39:44;36.11;33.45;40.07;;
66460;Laerm;58055;52.456;4.738;2023-04-06T00:39:55;36.23;33.89;41.22;;
66460;Laerm;58055;52.456;4.738;2023-04-06T00:40:05;38.03;33.73;43.53;;
66460;Laerm;58055;52.456;4.738;2023-04-06T00:40:16;36.09;33.86;40.27;;
66460;Laerm;58055;52.456;4.738;2023-04-06T00:40:26;35.35;33.05;40.80;;
66460;Laerm;58055;52.456;4.738;2023-04-06T00:40:38;36.52;33.56;42.90;;
66460;Laerm;58055;52.456;4.738;2023-04-06T00:40:49;37.17;33.88;45.68;;
66460;Laerm;58055;52.456;4.738;2023-04-06T00:41:00;35.38;32.93;37.14;;
66460;Laerm;58055;52.456;4.738;2023-04-06T00:41:10;35.70;33.65;38.06;;
66460;Laerm;58055;52.456;4.738;2023-04-06T00:41:21;35.57;32.86;37.87;;
66460;Laerm;58055;52.456;4.738;2023-04-06T00:41:31;36.23;33.62;39.04;;
66460;Laerm;58055;52.456;4.738;2023-04-06T00:41:45;36.47;33.39;42.29;;
66460;Laerm;58055;52.456;4.738;2023-04-06T00:41:55;35.62;33.09;39.01;;
66460;Laerm;58055;52.456;4.738;2023-04-06T00:42:10;35.96;33.39;40.18;;
66460;Laerm;58055;52.456;4.738;2023-04-06T00:42:22;36.13;33.17;42.46;;
66460;Laerm;58055;52.456;4.738;2023-04-06T00:42:35;38.72;33.38;49.56;;
66460;Laerm;58055;52.456;4.738;2023-04-06T00:42:46;35.44;32.45;41.19;;
66460;Laerm;58055;52.456;4.738;2023-04-06T00:42:56;37.73;33.77;43.04;;
66460;Laerm;58055;52.456;4.738;2023-04-06T00:43:07;36.03;33.48;39.36;;
66460;Laerm;58055;52.456;4.738;2023-04-06T00:43:19;37.63;34.89;44.27;;
66460;Laerm;58055;52.456;4.738;2023-04-06T00:43:29;37.88;34.54;47.46;;
66460;Laerm;58055;52.456;4.738;2023-04-06T00:43:39;38.62;35.17;43.58;;
66460;Laerm;58055;52.456;4.738;2023-04-06T00:43:50;37.97;33.81;42.75;;
66460;Laerm;58055;52.456;4.738;2023-04-06T00:44:00;35.97;33.47;38.68;;
66460;Laerm;58055;52.456;4.738;2023-04-06T00:44:10;36.33;33.53;42.26;;
66460;Laerm;58055;52.456;4.738;2023-04-06T00:44:21;35.72;33.43;37.88;;
66460;Laerm;58055;52.456;4.738;2023-04-06T00:44:31;35.19;33.33;38.08;;
66460;Laerm;58055;52.456;4.738;2023-04-06T00:44:41;36.29;33.90;40.41;;
66460;Laerm;58055;52.456;4.738;2023-04-06T00:44:53;35.49;32.81;45.46;;
66460;Laerm;58055;52.456;4.738;2023-04-06T00:45:03;35.16;33.00;39.17;;
66460;Laerm;58055;52.456;4.738;2023-04-06T00:45:13;35.04;32.85;37.86;;
66460;Laerm;58055;52.456;4.738;2023-04-06T00:45:24;35.04;33.13;37.59;;
66460;Laerm;58055;52.456;4.738;2023-04-06T00:45:34;35.46;33.16;38.61;;
66460;Laerm;58055;52.456;4.738;2023-04-06T00:45:45;36.34;33.10;43.97;;
66460;Laerm;58055;52.456;4.738;2023-04-06T00:45:55;35.43;32.14;45.64;;
66460;Laerm;58055;52.456;4.738;2023-04-06T00:46:05;34.44;32.67;36.83;;
66460;Laerm;58055;52.456;4.738;2023-04-06T00:46:16;34.50;32.59;37.41;;
66460;Laerm;58055;52.456;4.738;2023-04-06T00:46:26;35.30;33.29;41.64;;
66460;Laerm;58055;52.456;4.738;2023-04-06T00:46:36;35.08;33.18;39.00;;
66460;Laerm;58055;52.456;4.738;2023-04-06T00:46:47;34.43;32.65;36.83;;
66460;Laerm;58055;52.456;4.738;2023-04-06T00:46:57;34.97;32.31;43.13;;
66460;Laerm;58055;52.456;4.738;2023-04-06T00:47:07;35.57;33.29;43.37;;
66460;Laerm;58055;52.456;4.738;2023-04-06T00:47:18;36.24;32.83;45.55;;
66460;Laerm;58055;52.456;4.738;2023-04-06T00:47:28;39.87;32.48;56.53;;
66460;Laerm;58055;52.456;4.738;2023-04-06T00:47:39;35.30;33.03;42.36;;
66460;Laerm;58055;52.456;4.738;2023-04-06T00:47:49;35.09;32.27;40.10;;
66460;Laerm;58055;52.456;4.738;2023-04-06T00:47:59;34.93;32.53;38.91;;
66460;Laerm;58055;52.456;4.738;2023-04-06T00:48:11;34.92;32.93;38.53;;
66460;Laerm;58055;52.456;4.738;2023-04-06T00:48:22;34.68;32.77;36.81;;
66460;Laerm;58055;52.456;4.738;2023-04-06T00:48:32;34.80;32.97;37.33;;
66460;Laerm;58055;52.456;4.738;2023-04-06T00:48:42;34.25;32.26;36.65;;
66460;Laerm;58055;52.456;4.738;2023-04-06T00:48:53;34.19;32.27;37.93;;
66460;Laerm;58055;52.456;4.738;2023-04-06T00:49:03;34.62;32.49;38.19;;
66460;Laerm;58055;52.456;4.738;2023-04-06T00:49:13;34.96;33.00;37.72;;
66460;Laerm;58055;52.456;4.738;2023-04-06T00:49:24;34.88;32.71;39.56;;
66460;Laerm;58055;52.456;4.738;2023-04-06T00:49:34;35.49;33.15;39.53;;
66460;Laerm;58055;52.456;4.738;2023-04-06T00:49:45;34.43;32.42;38.39;;
66460;Laerm;58055;52.456;4.738;2023-04-06T00:49:56;34.90;32.39;38.23;;
66460;Laerm;58055;52.456;4.738;2023-04-06T00:50:06;36.42;32.78;47.82;;
66460;Laerm;58055;52.456;4.738;2023-04-06T00:50:17;38.18;32.69;50.44;;
66460;Laerm;58055;52.456;4.738;2023-04-06T00:50:27;37.38;32.88;47.40;;
66460;Laerm;58055;52.456;4.738;2023-04-06T00:50:37;34.68;32.85;37.81;;
66460;Laerm;58055;52.456;4.738;2023-04-06T00:50:48;34.99;32.94;39.58;;
66460;Laerm;58055;52.456;4.738;2023-04-06T00:50:58;35.45;33.09;41.16;;
66460;Laerm;58055;52.456;4.738;2023-04-06T00:51:09;35.37;33.15;40.78;;
66460;Laerm;58055;52.456;4.738;2023-04-06T00:51:19;34.93;32.48;38.86;;
66460;Laerm;58055;52.456;4.738;2023-04-06T00:51:30;35.21;32.79;39.82;;
66460;Laerm;58055;52.456;4.738;2023-04-06T00:51:40;35.30;32.93;39.16;;
66460;Laerm;58055;52.456;4.738;2023-04-06T00:51:51;34.95;33.13;37.51;;
66460;Laerm;58055;52.456;4.738;2023-04-06T00:52:01;34.93;33.25;37.95;;
66460;Laerm;58055;52.456;4.738;2023-04-06T00:52:12;35.82;33.11;42.54;;
66460;Laerm;58055;52.456;4.738;2023-04-06T00:52:22;35.83;32.61;47.61;;
66460;Laerm;58055;52.456;4.738;2023-04-06T00:52:33;35.73;33.30;41.48;;
66460;Laerm;58055;52.456;4.738;2023-04-06T00:52:43;36.74;33.24;48.82;;
66460;Laerm;58055;52.456;4.738;2023-04-06T00:52:54;37.17;33.27;48.48;;
66460;Laerm;58055;52.456;4.738;2023-04-06T00:53:04;36.06;34.00;43.44;;
66460;Laerm;58055;52.456;4.738;2023-04-06T00:53:15;36.07;33.78;38.69;;
66460;Laerm;58055;52.456;4.738;2023-04-06T00:53:25;36.89;34.11;39.70;;
66460;Laerm;58055;52.456;4.738;2023-04-06T00:53:35;36.58;34.47;38.51;;
66460;Laerm;58055;52.456;4.738;2023-04-06T00:53:46;37.78;34.81;46.74;;
66460;Laerm;58055;52.456;4.738;2023-04-06T00:53:56;37.42;34.23;47.29;;
66460;Laerm;58055;52.456;4.738;2023-04-06T00:54:06;37.75;34.20;48.07;;
66460;Laerm;58055;52.456;4.738;2023-04-06T00:54:17;37.24;33.65;46.11;;
66460;Laerm;58055;52.456;4.738;2023-04-06T00:54:28;38.30;34.38;47.65;;
66460;Laerm;58055;52.456;4.738;2023-04-06T00:54:38;37.07;34.56;40.79;;
66460;Laerm;58055;52.456;4.738;2023-04-06T00:54:49;38.15;34.43;49.72;;
66460;Laerm;58055;52.456;4.738;2023-04-06T00:55:00;38.47;34.24;48.28;;
66460;Laerm;58055;52.456;4.738;2023-04-06T00:55:10;37.30;34.95;48.15;;
66460;Laerm;58055;52.456;4.738;2023-04-06T00:55:21;37.09;34.48;43.95;;
66460;Laerm;58055;52.456;4.738;2023-04-06T00:55:31;37.39;34.94;40.98;;
66460;Laerm;58055;52.456;4.738;2023-04-06T00:55:41;36.04;33.76;40.72;;
66460;Laerm;58055;52.456;4.738;2023-04-06T00:55:52;35.82;33.45;41.61;;
66460;Laerm;58055;52.456;4.738;2023-04-06T00:56:02;35.49;33.28;38.66;;
66460;Laerm;58055;52.456;4.738;2023-04-06T00:56:12;36.61;32.93;43.84;;
66460;Laerm;58055;52.456;4.738;2023-04-06T00:56:22;35.80;33.51;39.36;;
66460;Laerm;58055;52.456;4.738;2023-04-06T00:56:33;37.01;34.08;42.55;;
66460;Laerm;58055;52.456;4.738;2023-04-06T00:56:44;37.81;34.12;47.41;;
66460;Laerm;58055;52.456;4.738;2023-04-06T00:56:55;40.11;33.71;52.38;;
66460;Laerm;58055;52.456;4.738;2023-04-06T00:57:05;35.57;32.68;38.07;;
66460;Laerm;58055;52.456;4.738;2023-04-06T00:57:16;36.28;33.38;39.83;;
66460;Laerm;58055;52.456;4.738;2023-04-06T00:57:26;36.52;33.92;41.83;;
66460;Laerm;58055;52.456;4.738;2023-04-06T00:57:36;38.90;33.89;51.96;;
66460;Laerm;58055;52.456;4.738;2023-04-06T00:57:47;36.74;34.01;44.93;;
66460;Laerm;58055;52.456;4.738;2023-04-06T00:57:58;35.97;33.82;38.36;;
66460;Laerm;58055;52.456;4.738;2023-04-06T00:58:09;35.66;33.54;37.93;;
66460;Laerm;58055;52.456;4.738;2023-04-06T00:58:19;35.10;33.07;39.12;;
66460;Laerm;58055;52.456;4.738;2023-04-06T00:58:30;36.94;33.10;49.79;;
66460;Laerm;58055;52.456;4.738;2023-04-06T00:58:40;37.99;33.11;47.00;;
66460;Laerm;58055;52.456;4.738;2023-04-06T00:58:51;37.02;32.48;48.85;;